Time;durP1;ratioP1;P1;durP2;ratioP2;P2;SDS_P1;SDS_P2;PMS_P1;PMS_P2;Temp;Humidity;BMP_temperature;BMP_pressure;BME280_temperature;BME280_humidity;BME280_pressure;Samples;Min_cycle;Max_cycle;Signal;HPM_P1;HPM_P2
2021/10/18 00:01:43;;;;;;;21.02;14.15;;;10.20;99.90;;;;;;5093170;28;20035;-90
2021/10/18 00:04:09;;;;;;;20.67;13.45;;;10.20;99.90;;;;;;5094316;28;20027;-91
2021/10/18 00:06:35;;;;;;;18.77;14.15;;;10.20;99.90;;;;;;5114453;28;20027;-91
2021/10/18 00:09:01;;;;;;;20.95;15.27;;;10.20;99.90;;;;;;5094465;28;20027;-91
2021/10/18 00:11:27;;;;;;;20.60;14.23;;;10.20;99.90;;;;;;5111243;27;20494;-91
2021/10/18 00:13:53;;;;;;;20.35;14.00;;;10.20;99.90;;;;;;5085011;28;20027;-90
2021/10/18 00:16:19;;;;;;;23.98;13.85;;;10.30;99.90;;;;;;5088584;28;20032;-90
2021/10/18 00:18:44;;;;;;;23.38;16.08;;;10.30;99.90;;;;;;5098543;28;20049;-91
2021/10/18 00:21:10;;;;;;;20.83;13.85;;;10.30;99.90;;;;;;5101042;28;20031;-91
2021/10/18 00:23:36;;;;;;;24.50;15.65;;;10.30;99.90;;;;;;5095120;28;20068;-91
2021/10/18 00:26:02;;;;;;;19.20;14.82;;;10.30;99.90;;;;;;5092418;28;20061;-90
2021/10/18 00:28:27;;;;;;;24.13;14.82;;;10.30;99.90;;;;;;5110982;28;20039;-90
2021/10/18 00:30:53;;;;;;;23.23;15.40;;;10.30;99.90;;;;;;5114006;28;20417;-90
2021/10/18 00:33:18;;;;;;;21.73;15.10;;;10.20;99.90;;;;;;5083873;28;20024;-90
2021/10/18 00:35:44;;;;;;;23.27;15.38;;;10.20;99.90;;;;;;5094800;28;20059;-90
2021/10/18 00:38:09;;;;;;;23.52;16.20;;;10.20;99.90;;;;;;5118682;28;20018;-90
2021/10/18 00:40:35;;;;;;;21.52;16.60;;;10.20;99.90;;;;;;5098288;28;20035;-90
2021/10/18 00:43:01;;;;;;;21.83;15.98;;;10.20;99.90;;;;;;5094959;28;20032;-89
2021/10/18 00:45:27;;;;;;;24.92;16.58;;;10.20;99.90;;;;;;5099674;28;20490;-89
2021/10/18 00:47:53;;;;;;;24.52;16.33;;;10.10;99.90;;;;;;5082300;28;20111;-90
2021/10/18 00:50:18;;;;;;;24.48;16.15;;;10.10;99.90;;;;;;5091408;28;20058;-90
2021/10/18 00:52:45;;;;;;;24.45;16.33;;;10.10;99.90;;;;;;5118558;28;20368;-90
2021/10/18 00:55:11;;;;;;;23.17;16.00;;;10.00;99.90;;;;;;5101047;28;20058;-90
2021/10/18 00:57:37;;;;;;;24.40;15.77;;;10.00;99.90;;;;;;5101855;28;20019;-89
2021/10/18 01:00:05;;;;;;;23.63;15.15;;;10.00;99.90;;;;;;5119068;28;20115;-89
2021/10/18 01:02:31;;;;;;;27.40;17.13;;;10.00;99.90;;;;;;5104445;27;20025;-89
2021/10/18 01:04:57;;;;;;;25.45;16.60;;;9.90;99.90;;;;;;5081636;28;20154;-90
2021/10/18 01:07:23;;;;;;;22.33;17.05;;;9.80;99.90;;;;;;5083107;28;20028;-89
2021/10/18 01:09:48;;;;;;;22.42;16.50;;;9.80;99.90;;;;;;5099078;28;20020;-90
2021/10/18 01:12:14;;;;;;;20.85;15.73;;;9.70;99.90;;;;;;5101852;28;20034;-90
2021/10/18 01:14:40;;;;;;;25.80;18.02;;;9.70;99.90;;;;;;5115373;28;20042;-90
2021/10/18 01:17:05;;;;;;;28.73;17.83;;;9.60;99.90;;;;;;5118686;28;20416;-90
2021/10/18 01:19:31;;;;;;;25.15;16.75;;;9.50;99.90;;;;;;5101819;28;20026;-90
2021/10/18 01:22:01;;;;;;;25.05;16.92;;;9.50;99.90;;;;;;5094655;28;20023;-91
2021/10/18 01:24:28;;;;;;;22.80;16.58;;;9.40;99.90;;;;;;5088403;28;20024;-90
2021/10/18 01:26:53;;;;;;;25.17;17.02;;;9.40;99.90;;;;;;5101173;28;20122;-92
2021/10/18 01:29:19;;;;;;;26.65;17.02;;;9.40;99.90;;;;;;5118445;28;20016;-90
2021/10/18 01:31:45;;;;;;;25.08;17.58;;;9.30;99.90;;;;;;5100793;28;20024;-90
2021/10/18 01:34:10;;;;;;;23.25;16.13;;;9.30;99.90;;;;;;5101206;28;20063;-91
2021/10/18 01:36:36;;;;;;;24.63;16.90;;;9.30;99.90;;;;;;5101294;28;20029;-91
2021/10/18 01:39:02;;;;;;;23.25;16.67;;;9.30;99.90;;;;;;5117172;28;20580;-90
2021/10/18 01:41:28;;;;;;;24.30;16.67;;;9.20;99.90;;;;;;5104055;28;20061;-91
2021/10/18 01:43:53;;;;;;;22.85;17.67;;;9.20;99.90;;;;;;5100049;28;20040;-90
2021/10/18 01:46:19;;;;;;;24.77;16.85;;;9.20;99.90;;;;;;5117095;28;20055;-91
2021/10/18 01:48:44;;;;;;;27.02;17.92;;;9.20;99.90;;;;;;5111042;28;20036;-91
2021/10/18 01:51:10;;;;;;;23.90;17.40;;;9.10;99.90;;;;;;5082863;28;20030;-90
2021/10/18 01:53:37;;;;;;;26.45;17.38;;;9.10;99.90;;;;;;5101242;28;20028;-90
2021/10/18 01:56:03;;;;;;;35.55;17.83;;;9.10;99.90;;;;;;5100582;27;20028;-90
2021/10/18 01:58:32;;;;;;;26.95;17.60;;;9.20;99.90;;;;;;5088081;28;20035;-90
2021/10/18 02:00:59;;;;;;;26.40;17.50;;;9.20;99.90;;;;;;5099292;28;20163;-91
2021/10/18 02:03:25;;;;;;;24.85;17.75;;;9.20;99.90;;;;;;5117861;28;20020;-90
2021/10/18 02:05:50;;;;;;;26.85;18.50;;;9.20;99.90;;;;;;5098366;28;20130;-90
2021/10/18 02:08:16;;;;;;;27.25;17.92;;;9.20;99.90;;;;;;5085992;28;20054;-90
2021/10/18 02:10:41;;;;;;;26.92;18.58;;;9.20;99.90;;;;;;5097038;28;20028;-90
2021/10/18 02:13:07;;;;;;;29.60;18.08;;;9.20;99.90;;;;;;5117390;28;20056;-91
2021/10/18 02:15:32;;;;;;;29.95;19.35;;;9.30;99.90;;;;;;5117593;27;20031;-90
2021/10/18 02:17:58;;;;;;;29.65;17.92;;;9.30;99.90;;;;;;5098490;28;20056;-90
2021/10/18 02:20:23;;;;;;;22.58;17.50;;;9.30;99.90;;;;;;5097689;28;20392;-91
2021/10/18 02:22:49;;;;;;;26.35;18.63;;;9.30;99.90;;;;;;5084398;28;20024;-90
2021/10/18 02:25:14;;;;;;;25.45;17.15;;;9.30;99.90;;;;;;5099348;28;20016;-91
2021/10/18 02:27:41;;;;;;;28.42;18.55;;;9.30;99.90;;;;;;5112610;27;20107;-91
2021/10/18 02:30:08;;;;;;;24.27;18.23;;;9.30;99.90;;;;;;5100002;28;20019;-91
2021/10/18 02:32:34;;;;;;;26.92;17.42;;;9.30;99.90;;;;;;5108354;28;20176;-91
2021/10/18 02:34:59;;;;;;;27.73;17.98;;;9.20;99.90;;;;;;5100096;28;20493;-92
2021/10/18 02:37:25;;;;;;;25.65;16.95;;;9.10;99.90;;;;;;5100331;28;20034;-91
2021/10/18 02:39:50;;;;;;;23.55;17.25;;;9.10;99.90;;;;;;5100172;28;20046;-91
2021/10/18 02:42:16;;;;;;;28.48;19.08;;;9.10;99.90;;;;;;5092482;28;20525;-92
2021/10/18 02:44:42;;;;;;;28.63;19.15;;;9.00;99.90;;;;;;5092493;28;20023;-91
2021/10/18 02:47:08;;;;;;;25.35;18.42;;;9.00;99.90;;;;;;5085933;28;20053;-92
2021/10/18 02:49:35;;;;;;;29.23;18.33;;;8.90;99.90;;;;;;5099285;28;21779;-91
2021/10/18 02:52:00;;;;;;;30.75;19.10;;;8.90;99.90;;;;;;5100167;28;20390;-88
2021/10/18 02:54:26;;;;;;;25.38;18.42;;;8.80;99.90;;;;;;5099788;28;20031;-91
2021/10/18 02:56:51;;;;;;;29.58;17.88;;;8.80;99.90;;;;;;5112547;27;20489;-91
2021/10/18 02:59:17;;;;;;;25.70;18.92;;;8.80;99.90;;;;;;5093984;28;20086;-92
2021/10/18 03:01:43;;;;;;;26.25;18.52;;;8.80;99.90;;;;;;5087823;28;20490;-90
2021/10/18 03:04:08;;;;;;;33.47;19.55;;;8.90;99.90;;;;;;5097737;28;20110;-91
2021/10/18 03:06:34;;;;;;;24.75;17.98;;;8.90;99.90;;;;;;5100275;28;20027;-90
2021/10/18 03:09:00;;;;;;;28.88;19.17;;;8.90;99.90;;;;;;5098721;28;20074;-91
2021/10/18 03:11:25;;;;;;;30.38;19.77;;;8.90;99.90;;;;;;5096421;28;20032;-92
2021/10/18 03:13:51;;;;;;;28.17;18.17;;;8.90;99.90;;;;;;5111336;28;20031;-91
2021/10/18 03:16:17;;;;;;;27.67;19.48;;;8.90;99.90;;;;;;5111964;28;20024;-91
2021/10/18 03:18:42;;;;;;;28.13;18.52;;;8.90;99.90;;;;;;5093288;28;20157;-91
2021/10/18 03:21:08;;;;;;;26.92;17.75;;;8.90;99.90;;;;;;5094115;28;20027;-91
2021/10/18 03:23:35;;;;;;;28.20;19.63;;;8.90;99.90;;;;;;5088980;28;20513;-92
2021/10/18 03:26:00;;;;;;;27.70;18.15;;;8.90;99.90;;;;;;5081911;28;20111;-92
2021/10/18 03:28:26;;;;;;;25.50;17.77;;;8.90;99.90;;;;;;5098827;28;20031;-90
2021/10/18 03:30:51;;;;;;;26.45;17.88;;;8.90;99.90;;;;;;5110848;28;20479;-91
2021/10/18 03:33:17;;;;;;;31.00;18.73;;;9.00;99.90;;;;;;5096252;28;20417;-91
2021/10/18 03:35:43;;;;;;;22.85;16.73;;;8.90;99.90;;;;;;5108645;27;20031;-91
2021/10/18 03:38:09;;;;;;;28.90;18.42;;;8.90;99.90;;;;;;5089484;28;20394;-91
2021/10/18 03:40:34;;;;;;;25.98;17.55;;;8.90;99.90;;;;;;5116646;28;20028;-91
2021/10/18 03:43:00;;;;;;;25.52;16.90;;;8.90;99.90;;;;;;5107194;28;20434;-91
2021/10/18 03:45:25;;;;;;;26.80;16.92;;;8.80;99.90;;;;;;5078289;28;20016;-91
2021/10/18 03:47:51;;;;;;;24.63;16.40;;;8.70;99.90;;;;;;5071609;28;20028;-90
2021/10/18 03:50:17;;;;;;;24.88;17.92;;;8.60;99.90;;;;;;5087267;28;20027;-91
2021/10/18 03:52:42;;;;;;;24.80;17.92;;;8.50;99.90;;;;;;5078249;28;20097;-88
2021/10/18 03:55:09;;;;;;;25.00;17.33;;;8.50;99.90;;;;;;5078412;28;20032;-90
2021/10/18 03:57:35;;;;;;;28.85;18.02;;;8.40;99.90;;;;;;5095055;28;20020;-89
2021/10/18 04:00:00;;;;;;;26.00;17.98;;;8.40;99.90;;;;;;5072342;28;20047;-90
2021/10/18 04:02:26;;;;;;;30.08;17.80;;;8.40;99.90;;;;;;5074109;28;20081;-88
2021/10/18 04:04:52;;;;;;;30.55;18.52;;;8.30;99.90;;;;;;5075559;28;20120;-91
2021/10/18 04:07:17;;;;;;;26.55;18.27;;;8.30;99.90;;;;;;5077645;28;20091;-90
2021/10/18 04:09:46;;;;;;;26.92;18.15;;;8.30;99.90;;;;;;5075297;28;20022;-90
2021/10/18 04:12:11;;;;;;;25.63;18.23;;;8.20;99.90;;;;;;5076066;28;20038;-90
2021/10/18 04:14:37;;;;;;;28.25;18.17;;;8.20;99.90;;;;;;5076367;28;20495;-91
2021/10/18 04:17:03;;;;;;;24.77;17.75;;;8.20;99.90;;;;;;5077198;28;20024;-90
2021/10/18 04:19:28;;;;;;;24.60;17.27;;;8.20;99.90;;;;;;5069643;28;20020;-90
2021/10/18 04:21:54;;;;;;;26.60;17.88;;;8.20;99.90;;;;;;5077604;28;20161;-91
2021/10/18 04:24:20;;;;;;;30.25;19.13;;;8.20;99.90;;;;;;5063920;28;20021;-91
2021/10/18 04:26:45;;;;;;;27.58;18.70;;;8.20;99.90;;;;;;5074626;28;20036;-90
2021/10/18 04:29:11;;;;;;;29.25;18.42;;;8.20;99.90;;;;;;5064412;28;20017;-90
2021/10/18 04:31:37;;;;;;;28.38;18.10;;;8.10;99.90;;;;;;5075640;28;20024;-90
2021/10/18 04:34:02;;;;;;;31.20;19.98;;;8.10;99.90;;;;;;5077010;28;20024;-90
2021/10/18 04:36:28;;;;;;;35.38;20.80;;;8.10;99.90;;;;;;5076532;28;20035;-90
2021/10/18 04:38:54;;;;;;;28.48;18.52;;;8.10;99.90;;;;;;5076503;28;20094;-90
2021/10/18 04:41:21;;;;;;;23.65;17.98;;;8.10;99.90;;;;;;5075717;28;20082;-90
2021/10/18 04:43:46;;;;;;;26.88;18.27;;;8.10;99.90;;;;;;5081178;28;20126;-91
2021/10/18 04:46:13;;;;;;;27.05;18.42;;;8.00;99.90;;;;;;5087057;28;20520;-91
2021/10/18 04:48:39;;;;;;;30.17;18.80;;;8.00;99.90;;;;;;5089354;28;20467;-91
2021/10/18 04:51:04;;;;;;;26.65;18.17;;;7.90;99.90;;;;;;5077265;28;20028;-88
2021/10/18 04:53:30;;;;;;;26.55;18.30;;;7.90;99.90;;;;;;5087500;28;20127;-91
2021/10/18 04:55:55;;;;;;;27.92;19.30;;;7.90;99.90;;;;;;5091144;28;20024;-90
2021/10/18 04:58:21;;;;;;;30.73;20.30;;;7.90;99.90;;;;;;5074359;28;20737;-90
2021/10/18 05:00:50;;;;;;;28.67;20.05;;;7.90;99.90;;;;;;5074736;28;20024;-90
2021/10/18 05:03:16;;;;;;;31.48;20.02;;;7.90;99.90;;;;;;5076512;28;20028;-90
2021/10/18 05:05:41;;;;;;;33.20;21.38;;;7.90;99.90;;;;;;5096829;28;20479;-90
2021/10/18 05:08:12;;;;;;;36.10;22.63;;;7.90;99.90;;;;;;5095645;28;20017;-90
2021/10/18 05:10:42;;;;;;;32.10;21.63;;;7.90;99.90;;;;;;5062895;28;20124;-90
2021/10/18 05:13:09;;;;;;;28.38;20.45;;;7.90;99.90;;;;;;5098257;28;20031;-90
2021/10/18 05:15:35;;;;;;;36.80;21.73;;;7.90;99.90;;;;;;5097895;28;20086;-91
2021/10/18 05:18:01;;;;;;;37.58;21.17;;;7.90;99.90;;;;;;5073286;28;20016;-91
2021/10/18 05:20:30;;;;;;;34.20;20.90;;;7.90;99.90;;;;;;5066832;28;20559;-91
2021/10/18 05:22:56;;;;;;;30.20;21.13;;;7.90;99.90;;;;;;5078617;28;20043;-90
2021/10/18 05:25:22;;;;;;;31.80;20.92;;;7.90;99.90;;;;;;5078764;28;20054;-90
2021/10/18 05:27:48;;;;;;;34.35;21.13;;;7.90;99.90;;;;;;5104472;28;20016;-91
2021/10/18 05:30:13;;;;;;;29.55;20.13;;;7.90;99.90;;;;;;5076600;28;20570;-89
2021/10/18 05:32:40;;;;;;;36.75;21.60;;;7.90;99.90;;;;;;5066817;28;20081;-90
2021/10/18 05:35:07;;;;;;;34.72;21.70;;;7.90;99.90;;;;;;5072834;28;20035;-89
2021/10/18 05:37:32;;;;;;;28.52;20.20;;;7.80;99.90;;;;;;5096431;28;20048;-89
2021/10/18 05:39:58;;;;;;;34.95;22.10;;;7.80;99.90;;;;;;5078455;28;20057;-90
2021/10/18 05:42:24;;;;;;;37.72;23.05;;;7.70;99.90;;;;;;5077524;28;20044;-90
2021/10/18 05:44:49;;;;;;;32.72;22.05;;;7.70;99.90;;;;;;5102389;27;20491;-88
2021/10/18 05:47:15;;;;;;;31.35;22.02;;;7.60;99.90;;;;;;5102590;28;20422;-90
2021/10/18 05:49:40;;;;;;;32.58;21.65;;;7.60;99.90;;;;;;5117427;28;20027;-89
2021/10/18 05:52:06;;;;;;;33.50;22.70;;;7.60;99.90;;;;;;5117294;28;20040;-89
2021/10/18 05:54:32;;;;;;;34.15;22.42;;;7.50;99.90;;;;;;5095285;28;20023;-90
2021/10/18 05:56:57;;;;;;;34.72;21.75;;;7.50;99.90;;;;;;5103655;27;20031;-90
2021/10/18 05:59:23;;;;;;;32.90;22.20;;;7.50;99.90;;;;;;5096659;28;20066;-90
2021/10/18 06:01:49;;;;;;;39.08;24.27;;;7.50;99.90;;;;;;5091866;28;20093;-90
2021/10/18 06:04:14;;;;;;;39.33;23.67;;;7.50;99.90;;;;;;5104353;27;20024;-90
2021/10/18 06:06:40;;;;;;;39.65;24.08;;;7.50;99.90;;;;;;5096405;28;20117;-90
2021/10/18 06:09:06;;;;;;;37.20;22.58;;;7.50;99.90;;;;;;5103105;28;20107;-91
2021/10/18 06:11:33;;;;;;;36.72;22.73;;;7.50;99.90;;;;;;5096041;28;20027;-90
2021/10/18 06:13:59;;;;;;;38.88;23.92;;;7.60;99.90;;;;;;5113449;28;20020;-90
2021/10/18 06:16:25;;;;;;;40.08;22.95;;;7.50;99.90;;;;;;5113137;28;20031;-90
2021/10/18 06:18:51;;;;;;;34.78;22.50;;;7.50;99.90;;;;;;5110734;28;20020;-89
2021/10/18 06:21:16;;;;;;;45.10;24.58;;;7.50;99.90;;;;;;5085703;28;20039;-89
2021/10/18 06:23:43;;;;;;;42.58;26.23;;;7.50;99.90;;;;;;5108288;28;20475;-89
2021/10/18 06:26:10;;;;;;;40.38;24.10;;;7.50;99.90;;;;;;5081489;27;20051;-90
2021/10/18 06:28:35;;;;;;;33.88;23.25;;;7.50;99.90;;;;;;5099138;28;20114;-89
2021/10/18 06:31:01;;;;;;;38.47;23.52;;;7.50;99.90;;;;;;5111996;28;20164;-90
2021/10/18 06:33:27;;;;;;;43.08;24.85;;;7.60;99.90;;;;;;5087752;28;20509;-89
2021/10/18 06:35:53;;;;;;;40.45;24.08;;;7.60;99.90;;;;;;5096681;28;20029;-89
2021/10/18 06:38:21;;;;;;;40.55;25.27;;;7.60;99.90;;;;;;5109860;27;20020;-88
2021/10/18 06:40:48;;;;;;;39.50;23.05;;;7.70;99.90;;;;;;5091837;28;20058;-89
2021/10/18 06:43:14;;;;;;;36.15;23.83;;;7.70;99.90;;;;;;5088863;28;20389;-90
2021/10/18 06:45:40;;;;;;;40.25;25.02;;;7.80;99.90;;;;;;5088083;28;20070;-89
2021/10/18 06:48:08;;;;;;;36.30;24.60;;;7.80;99.90;;;;;;5073984;28;20012;-89
2021/10/18 06:50:35;;;;;;;39.83;25.55;;;7.80;99.90;;;;;;5081228;28;20371;-90
2021/10/18 06:53:01;;;;;;;41.80;24.35;;;7.90;99.90;;;;;;5078900;28;20024;-89
2021/10/18 06:55:27;;;;;;;35.55;24.10;;;7.90;99.90;;;;;;5063812;28;20042;-89
2021/10/18 06:57:54;;;;;;;35.30;23.00;;;8.00;99.90;;;;;;5091990;28;20379;-90
2021/10/18 07:00:20;;;;;;;37.80;23.52;;;8.00;99.90;;;;;;5090386;28;20042;-89
2021/10/18 07:02:45;;;;;;;38.25;22.08;;;8.10;99.90;;;;;;5070633;28;20115;-89
2021/10/18 07:05:11;;;;;;;37.03;23.33;;;8.20;99.90;;;;;;5078135;28;20031;-89
2021/10/18 07:07:37;;;;;;;33.83;23.35;;;8.20;99.90;;;;;;5070937;28;20024;-88
2021/10/18 07:10:04;;;;;;;36.60;22.52;;;8.30;99.90;;;;;;5074188;28;20028;-89
2021/10/18 07:12:32;;;;;;;35.25;23.15;;;8.30;99.90;;;;;;5069132;28;20028;-90
2021/10/18 07:14:59;;;;;;;36.38;23.35;;;8.40;99.90;;;;;;5094762;28;20084;-89
2021/10/18 07:17:26;;;;;;;30.73;21.85;;;8.40;99.90;;;;;;5077793;28;20028;-89
2021/10/18 07:19:53;;;;;;;35.00;23.08;;;8.50;99.90;;;;;;5093647;28;20031;-89
2021/10/18 07:22:21;;;;;;;34.65;23.88;;;8.50;99.90;;;;;;5061437;28;20036;-89
2021/10/18 07:24:46;;;;;;;42.10;25.55;;;8.60;99.90;;;;;;5085296;28;20024;-89
2021/10/18 07:27:12;;;;;;;36.22;21.67;;;8.60;99.90;;;;;;5061419;28;20027;-89
2021/10/18 07:29:38;;;;;;;33.10;22.90;;;8.70;99.90;;;;;;5069482;28;20032;-88
2021/10/18 07:32:05;;;;;;;37.60;22.63;;;8.70;99.90;;;;;;5085470;28;20025;-89
2021/10/18 07:34:31;;;;;;;33.55;22.23;;;8.70;99.90;;;;;;5067098;28;20024;-89
2021/10/18 07:36:56;;;;;;;33.63;22.23;;;8.80;99.90;;;;;;5096756;28;20020;-89
2021/10/18 07:39:25;;;;;;;34.33;22.58;;;8.80;99.90;;;;;;5091244;28;20046;-89
2021/10/18 07:41:53;;;;;;;31.13;22.13;;;8.90;99.90;;;;;;5073452;28;20045;-89
2021/10/18 07:44:19;;;;;;;30.63;21.25;;;8.90;99.90;;;;;;5074577;28;20044;-89
2021/10/18 07:46:45;;;;;;;34.30;21.83;;;9.00;99.90;;;;;;5087240;28;20055;-88
2021/10/18 07:49:12;;;;;;;29.42;20.92;;;9.10;99.90;;;;;;5075278;28;20017;-88
2021/10/18 07:51:38;;;;;;;29.67;20.13;;;9.20;99.90;;;;;;5063754;28;20086;-88
2021/10/18 07:54:04;;;;;;;33.95;21.55;;;9.30;99.90;;;;;;5074533;28;20028;-88
2021/10/18 07:56:30;;;;;;;31.05;20.90;;;9.40;99.90;;;;;;5093170;28;20024;-87
2021/10/18 07:58:55;;;;;;;33.20;20.65;;;9.50;99.90;;;;;;5073835;28;20032;-89
2021/10/18 08:01:21;;;;;;;31.13;20.50;;;9.60;99.90;;;;;;5067905;28;20059;-88
2021/10/18 08:03:46;;;;;;;29.13;19.17;;;9.60;99.90;;;;;;5067369;28;20028;-88
2021/10/18 08:06:12;;;;;;;26.92;20.17;;;9.70;99.90;;;;;;5076331;28;20032;-90
2021/10/18 08:08:44;;;;;;;27.95;18.63;;;9.80;99.90;;;;;;5081109;28;20047;-89
2021/10/18 08:11:11;;;;;;;29.13;20.83;;;9.90;99.90;;;;;;5058152;28;20052;-89
2021/10/18 08:13:36;;;;;;;33.40;20.10;;;9.90;99.90;;;;;;5075340;28;20024;-89
2021/10/18 08:16:02;;;;;;;27.35;19.23;;;9.90;99.90;;;;;;5075988;28;20412;-89
2021/10/18 08:18:27;;;;;;;30.67;20.05;;;10.00;99.90;;;;;;5061306;28;20056;-89
2021/10/18 08:20:53;;;;;;;26.52;18.90;;;10.00;99.90;;;;;;5055806;28;20087;-89
2021/10/18 08:23:18;;;;;;;27.30;19.13;;;10.00;99.90;;;;;;5061163;28;20025;-89
2021/10/18 08:25:44;;;;;;;29.65;20.38;;;10.10;99.90;;;;;;5075422;28;20032;-90
2021/10/18 08:28:10;;;;;;;30.92;19.92;;;10.20;99.90;;;;;;5075302;28;20103;-89
2021/10/18 08:30:36;;;;;;;31.13;19.77;;;10.30;99.90;;;;;;5070311;28;20027;-89
2021/10/18 08:33:02;;;;;;;26.45;19.25;;;10.30;99.90;;;;;;5073840;28;20541;-89
2021/10/18 08:35:28;;;;;;;24.13;18.77;;;10.50;99.90;;;;;;5076298;28;20024;-90
2021/10/18 08:41:15;;;;;;;29.05;20.40;;;10.70;99.90;;;;;;5089518;28;20165;-89
2021/10/18 08:46:06;;;;;;;23.67;17.50;;;11.00;99.90;;;;;;5083732;28;20083;-89
2021/10/18 08:48:32;;;;;;;27.60;18.40;;;11.00;99.90;;;;;;5080612;28;20110;-89
2021/10/18 08:50:59;;;;;;;26.67;17.83;;;11.10;99.90;;;;;;5077945;28;20054;-89
2021/10/18 08:53:24;;;;;;;26.42;18.15;;;11.20;99.90;;;;;;5069683;28;20025;-89
2021/10/18 08:55:50;;;;;;;27.02;18.80;;;11.30;99.90;;;;;;5079216;28;20024;-89
2021/10/18 08:58:17;;;;;;;23.20;17.38;;;11.40;99.90;;;;;;5062948;28;20490;-89
2021/10/18 09:00:50;;;;;;;24.90;18.02;;;11.40;99.90;;;;;;5073586;28;20040;-89
2021/10/18 09:03:23;;;;;;;24.45;17.50;;;11.50;99.90;;;;;;5073836;28;20063;-88
2021/10/18 09:05:50;;;;;;;22.98;17.33;;;11.60;99.90;;;;;;5080187;28;20031;-89
2021/10/18 09:08:33;;;;;;;29.98;18.48;;;11.70;99.90;;;;;;5078836;28;20031;-89
2021/10/18 09:11:15;;;;;;;30.17;19.25;;;11.90;99.90;;;;;;5075085;28;20035;-88
2021/10/18 09:13:45;;;;;;;26.17;18.20;;;12.10;99.90;;;;;;5078899;28;20118;-89
2021/10/18 09:16:20;;;;;;;24.10;17.35;;;12.20;99.90;;;;;;5078363;28;20020;-89
2021/10/18 09:19:06;;;;;;;22.48;16.52;;;12.30;99.90;;;;;;5078861;28;20502;-89
2021/10/18 09:21:43;;;;;;;27.38;17.17;;;12.50;99.90;;;;;;5062607;28;20072;-89
2021/10/18 09:24:12;;;;;;;25.58;17.65;;;12.50;99.90;;;;;;5073936;28;20027;-89
2021/10/18 09:26:40;;;;;;;27.33;18.40;;;12.50;99.90;;;;;;5080420;28;20024;-89
2021/10/18 09:29:07;;;;;;;24.52;17.27;;;12.50;99.90;;;;;;5073167;28;20020;-90
2021/10/18 09:31:33;;;;;;;24.52;18.40;;;12.60;99.90;;;;;;5076146;28;20024;-89
2021/10/18 09:34:14;;;;;;;21.60;16.02;;;12.60;99.90;;;;;;5081731;28;20024;-89
2021/10/18 09:36:41;;;;;;;25.23;18.58;;;12.80;99.90;;;;;;5079232;28;20032;-90
2021/10/18 09:39:11;;;;;;;25.23;17.20;;;12.80;99.90;;;;;;5078292;28;20028;-88
2021/10/18 09:41:40;;;;;;;24.80;16.83;;;13.00;99.90;;;;;;5075690;28;20052;-87
2021/10/18 09:44:13;;;;;;;24.42;17.08;;;13.00;99.90;;;;;;5068094;28;20098;-89
2021/10/18 09:47:05;;;;;;;22.30;16.38;;;13.10;99.70;;;;;;5097419;28;20024;-89
2021/10/18 10:56:39;;;;;;;20.05;14.90;;;14.10;95.70;;;;;;5093321;28;20032;-89
2021/10/18 10:59:06;;;;;;;20.63;14.57;;;14.10;95.70;;;;;;5096454;28;20031;-89
2021/10/18 11:01:46;;;;;;;21.95;14.80;;;14.20;95.60;;;;;;5078500;28;20035;-89
2021/10/18 11:04:30;;;;;;;20.45;14.43;;;14.40;95.40;;;;;;5076508;28;20036;-90
2021/10/18 11:06:58;;;;;;;21.95;14.15;;;14.50;95.30;;;;;;5076247;28;20028;-89
2021/10/18 11:09:38;;;;;;;20.55;14.38;;;14.70;95.40;;;;;;5083262;28;20020;-90
2021/10/18 11:12:06;;;;;;;21.60;14.82;;;14.80;94.70;;;;;;5093819;28;20048;-89
2021/10/18 11:14:32;;;;;;;21.33;14.55;;;14.90;94.50;;;;;;5077197;28;20107;-90
2021/10/18 11:16:57;;;;;;;18.15;13.02;;;14.90;94.30;;;;;;5070756;28;20052;-88
2021/10/18 11:19:23;;;;;;;23.50;14.77;;;14.90;94.40;;;;;;5074287;28;20578;-88
2021/10/18 11:22:00;;;;;;;17.33;12.55;;;15.00;94.20;;;;;;5076149;28;20131;-89
2021/10/18 11:24:39;;;;;;;17.98;12.55;;;15.00;94.20;;;;;;5077342;28;20067;-89
2021/10/18 11:27:04;;;;;;;21.58;13.57;;;15.10;94.20;;;;;;5071670;28;20017;-89
2021/10/18 11:29:32;;;;;;;17.80;14.18;;;15.10;94.10;;;;;;5075798;28;20053;-90
2021/10/18 11:32:09;;;;;;;21.38;12.95;;;15.30;94.00;;;;;;5094763;28;20024;-90
2021/10/18 11:34:35;;;;;;;18.40;13.20;;;15.40;93.90;;;;;;5094674;28;20027;-91
2021/10/18 11:37:01;;;;;;;17.45;13.32;;;15.50;93.60;;;;;;5078203;28;20025;-90
2021/10/18 11:39:29;;;;;;;17.25;12.35;;;15.60;93.50;;;;;;5094037;28;20036;-89
2021/10/18 11:41:58;;;;;;;18.85;12.52;;;15.70;93.20;;;;;;5077557;28;20563;-89
2021/10/18 11:44:42;;;;;;;16.20;12.18;;;15.70;93.00;;;;;;5093109;28;20051;-90
2021/10/18 11:47:37;;;;;;;18.77;13.20;;;15.70;92.80;;;;;;5075444;28;20464;-90
2021/10/18 11:50:15;;;;;;;17.67;12.93;;;15.80;92.80;;;;;;5077253;28;20016;-89
2021/10/18 11:52:46;;;;;;;16.27;12.65;;;15.80;92.50;;;;;;5094778;28;20016;-89
2021/10/18 11:55:24;;;;;;;18.83;13.60;;;15.80;92.50;;;;;;5088136;28;20016;-89
2021/10/18 11:57:51;;;;;;;16.50;12.65;;;15.80;92.10;;;;;;5094794;28;20062;-89
2021/10/18 12:00:25;;;;;;;18.27;12.65;;;15.80;92.20;;;;;;5078391;28;20120;-89
2021/10/18 12:02:52;;;;;;;19.08;13.15;;;15.80;92.20;;;;;;5081704;28;20024;-90
2021/10/18 12:05:18;;;;;;;18.42;13.35;;;15.80;92.20;;;;;;5092763;28;20024;-95
2021/10/18 12:07:51;;;;;;;18.02;13.13;;;15.70;91.90;;;;;;5095421;28;20054;-89
2021/10/18 12:10:25;;;;;;;18.90;13.57;;;15.60;92.00;;;;;;5086435;28;20039;-89
2021/10/18 12:13:11;;;;;;;19.98;13.27;;;15.60;92.10;;;;;;5080710;28;20530;-91
2021/10/18 12:15:51;;;;;;;20.35;13.00;;;15.60;91.90;;;;;;5064717;28;20053;-89
2021/10/18 12:18:32;;;;;;;20.73;12.60;;;15.50;91.90;;;;;;5086121;28;20056;-90
2021/10/18 12:21:09;;;;;;;19.05;13.73;;;15.50;91.90;;;;;;5076888;28;20032;-89
2021/10/18 12:23:37;;;;;;;17.00;12.50;;;15.50;91.90;;;;;;5083765;28;20020;-88
2021/10/18 12:26:11;;;;;;;17.02;12.27;;;15.50;91.90;;;;;;5091737;28;20060;-89
2021/10/18 12:28:40;;;;;;;17.88;13.07;;;15.60;92.00;;;;;;5092747;28;20024;-89
2021/10/18 12:31:24;;;;;;;19.48;12.13;;;15.60;91.90;;;;;;5082441;28;20032;-89
2021/10/18 12:33:59;;;;;;;17.83;12.55;;;15.70;91.80;;;;;;5090131;28;20024;-89
2021/10/18 12:36:25;;;;;;;18.83;14.05;;;15.70;91.80;;;;;;5074760;28;20028;-89
2021/10/18 12:38:50;;;;;;;18.50;12.35;;;15.70;92.00;;;;;;5085663;28;20043;-90
2021/10/18 12:41:17;;;;;;;16.88;12.20;;;15.80;91.90;;;;;;5093361;28;20121;-88
2021/10/18 12:43:44;;;;;;;17.52;12.73;;;15.80;91.80;;;;;;5077540;28;20400;-89
2021/10/18 12:46:28;;;;;;;17.25;12.55;;;15.70;91.70;;;;;;5075080;28;20031;-89
2021/10/18 12:49:02;;;;;;;15.60;12.07;;;15.80;91.80;;;;;;5064628;28;20074;-89
2021/10/18 12:51:47;;;;;;;18.77;12.75;;;15.80;91.70;;;;;;5068551;28;20024;-88
2021/10/18 12:54:20;;;;;;;19.83;12.20;;;15.80;91.70;;;;;;5069317;28;20024;-90
2021/10/18 12:56:59;;;;;;;16.75;12.63;;;15.90;91.80;;;;;;5090536;28;20032;-90
2021/10/18 12:59:25;;;;;;;17.95;13.70;;;15.90;91.70;;;;;;5074220;28;20553;-88
2021/10/18 13:02:18;;;;;;;18.33;12.65;;;15.90;91.70;;;;;;5074186;28;20072;-87
2021/10/18 13:05:05;;;;;;;18.52;13.52;;;16.00;91.60;;;;;;5061900;28;20115;-88
2021/10/18 13:07:31;;;;;;;17.77;12.75;;;16.00;91.60;;;;;;5070676;28;20040;-89
2021/10/18 13:09:57;;;;;;;17.42;12.52;;;16.00;91.60;;;;;;5076175;28;20032;-90
2021/10/18 13:12:23;;;;;;;19.63;13.82;;;16.00;91.50;;;;;;5074012;28;20039;-90
2021/10/18 13:14:49;;;;;;;16.33;12.73;;;16.00;91.70;;;;;;5075475;28;20062;-88
2021/10/18 13:17:15;;;;;;;21.00;13.38;;;16.00;91.60;;;;;;5074094;28;20028;-89
2021/10/18 13:19:40;;;;;;;16.73;12.10;;;16.00;91.50;;;;;;5073490;28;20027;-89
2021/10/18 13:22:06;;;;;;;17.45;12.50;;;16.00;91.70;;;;;;5075638;28;20119;-89
2021/10/18 13:24:32;;;;;;;18.08;12.75;;;16.10;91.90;;;;;;5075349;28;20055;-88
2021/10/18 13:26:57;;;;;;;17.70;11.77;;;16.10;91.90;;;;;;5077487;28;20028;-89
2021/10/18 13:29:24;;;;;;;18.15;11.38;;;16.20;91.50;;;;;;5068221;28;20021;-89
2021/10/18 13:31:49;;;;;;;16.08;11.13;;;16.10;91.20;;;;;;5063679;28;20025;-89
2021/10/18 13:34:15;;;;;;;17.98;12.35;;;16.10;91.40;;;;;;5074903;28;20031;-88
2021/10/18 13:36:40;;;;;;;15.63;11.10;;;16.10;91.40;;;;;;5081120;28;20029;-88
2021/10/18 13:39:06;;;;;;;15.10;10.93;;;16.10;91.40;;;;;;5080599;28;20035;-89
2021/10/18 13:41:32;;;;;;;15.57;11.00;;;16.10;91.40;;;;;;5094910;28;20419;-88
2021/10/18 13:43:57;;;;;;;17.33;10.82;;;16.20;91.50;;;;;;5079233;28;20037;-88
2021/10/18 13:46:23;;;;;;;17.30;11.32;;;16.30;91.40;;;;;;5074989;28;20031;-89
2021/10/18 13:48:49;;;;;;;15.50;12.00;;;16.40;91.30;;;;;;5077209;28;20486;-90